sensor_id;sensor_type;location;lat;lon;timestamp;P1;durP1;ratioP1;P2;durP2;ratioP2
18298;SDS011;9275;48.690;9.686;2024-03-08T00:01:56;3.50;;;1.77;;
18298;SDS011;9275;48.690;9.686;2024-03-08T00:07:01;3.83;;;2.00;;
18298;SDS011;9275;48.690;9.686;2024-03-08T00:12:05;5.33;;;2.10;;
18298;SDS011;9275;48.690;9.686;2024-03-08T00:17:12;3.67;;;2.00;;
18298;SDS011;9275;48.690;9.686;2024-03-08T00:22:18;3.60;;;2.00;;
18298;SDS011;9275;48.690;9.686;2024-03-08T00:27:24;3.67;;;1.90;;
18298;SDS011;9275;48.690;9.686;2024-03-08T00:32:30;3.67;;;1.90;;
18298;SDS011;9275;48.690;9.686;2024-03-08T00:37:35;4.63;;;2.17;;
18298;SDS011;9275;48.690;9.686;2024-03-08T00:42:40;4.23;;;1.90;;
18298;SDS011;9275;48.690;9.686;2024-03-08T00:47:47;4.87;;;2.07;;
18298;SDS011;9275;48.690;9.686;2024-03-08T00:52:52;6.13;;;2.10;;
18298;SDS011;9275;48.690;9.686;2024-03-08T00:57:57;4.27;;;2.00;;
18298;SDS011;9275;48.690;9.686;2024-03-08T01:03:04;3.97;;;1.87;;
18298;SDS011;9275;48.690;9.686;2024-03-08T01:08:09;4.57;;;1.70;;
18298;SDS011;9275;48.690;9.686;2024-03-08T01:13:13;3.60;;;1.90;;
18298;SDS011;9275;48.690;9.686;2024-03-08T01:18:19;4.23;;;1.93;;
18298;SDS011;9275;48.690;9.686;2024-03-08T01:23:24;4.77;;;2.30;;
18298;SDS011;9275;48.690;9.686;2024-03-08T01:28:29;5.30;;;2.10;;
18298;SDS011;9275;48.690;9.686;2024-03-08T01:33:37;3.63;;;2.00;;
18298;SDS011;9275;48.690;9.686;2024-03-08T01:38:42;4.73;;;2.03;;
18298;SDS011;9275;48.690;9.686;2024-03-08T01:43:47;3.80;;;1.90;;
18298;SDS011;9275;48.690;9.686;2024-03-08T01:48:54;5.27;;;1.83;;
18298;SDS011;9275;48.690;9.686;2024-03-08T01:53:59;4.23;;;2.07;;
18298;SDS011;9275;48.690;9.686;2024-03-08T01:59:07;3.60;;;1.97;;
18298;SDS011;9275;48.690;9.686;2024-03-08T02:04:13;4.23;;;2.00;;
18298;SDS011;9275;48.690;9.686;2024-03-08T02:09:19;5.33;;;2.00;;
18298;SDS011;9275;48.690;9.686;2024-03-08T02:14:23;4.47;;;2.30;;
18298;SDS011;9275;48.690;9.686;2024-03-08T02:19:29;4.53;;;1.73;;
18298;SDS011;9275;48.690;9.686;2024-03-08T02:24:36;3.77;;;1.60;;
18298;SDS011;9275;48.690;9.686;2024-03-08T02:29:41;3.77;;;1.87;;
18298;SDS011;9275;48.690;9.686;2024-03-08T02:34:47;7.77;;;2.07;;
18298;SDS011;9275;48.690;9.686;2024-03-08T02:39:56;4.10;;;1.80;;
18298;SDS011;9275;48.690;9.686;2024-03-08T02:45:00;5.07;;;1.80;;
18298;SDS011;9275;48.690;9.686;2024-03-08T02:50:08;5.20;;;1.87;;
18298;SDS011;9275;48.690;9.686;2024-03-08T02:55:15;4.80;;;1.97;;
18298;SDS011;9275;48.690;9.686;2024-03-08T03:00:20;5.87;;;2.10;;
18298;SDS011;9275;48.690;9.686;2024-03-08T03:05:26;4.73;;;2.00;;
18298;SDS011;9275;48.690;9.686;2024-03-08T03:10:33;4.57;;;1.67;;
18298;SDS011;9275;48.690;9.686;2024-03-08T03:15:38;5.67;;;1.90;;
18298;SDS011;9275;48.690;9.686;2024-03-08T03:20:44;3.07;;;1.80;;
18298;SDS011;9275;48.690;9.686;2024-03-08T03:25:50;4.30;;;1.83;;
18298;SDS011;9275;48.690;9.686;2024-03-08T03:30:54;3.57;;;1.70;;
18298;SDS011;9275;48.690;9.686;2024-03-08T03:36:01;3.73;;;1.60;;
18298;SDS011;9275;48.690;9.686;2024-03-08T03:41:07;2.90;;;1.60;;
18298;SDS011;9275;48.690;9.686;2024-03-08T03:46:13;6.03;;;2.30;;
18298;SDS011;9275;48.690;9.686;2024-03-08T03:51:18;5.40;;;1.83;;
18298;SDS011;9275;48.690;9.686;2024-03-08T03:56:26;3.63;;;1.80;;
18298;SDS011;9275;48.690;9.686;2024-03-08T04:01:31;4.43;;;1.87;;
18298;SDS011;9275;48.690;9.686;2024-03-08T04:06:40;3.77;;;1.80;;
18298;SDS011;9275;48.690;9.686;2024-03-08T04:11:46;6.10;;;2.00;;
18298;SDS011;9275;48.690;9.686;2024-03-08T04:16:50;5.37;;;1.70;;
18298;SDS011;9275;48.690;9.686;2024-03-08T04:21:55;3.97;;;1.80;;
18298;SDS011;9275;48.690;9.686;2024-03-08T04:27:01;4.20;;;1.80;;
18298;SDS011;9275;48.690;9.686;2024-03-08T04:32:07;3.93;;;1.73;;
18298;SDS011;9275;48.690;9.686;2024-03-08T04:37:12;4.33;;;1.77;;
18298;SDS011;9275;48.690;9.686;2024-03-08T04:42:18;4.07;;;1.60;;
18298;SDS011;9275;48.690;9.686;2024-03-08T04:47:23;5.00;;;1.70;;
18298;SDS011;9275;48.690;9.686;2024-03-08T04:52:27;3.50;;;1.63;;
18298;SDS011;9275;48.690;9.686;2024-03-08T04:57:33;2.93;;;1.47;;
18298;SDS011;9275;48.690;9.686;2024-03-08T05:02:40;3.57;;;1.83;;
18298;SDS011;9275;48.690;9.686;2024-03-08T05:07:46;3.10;;;1.53;;
18298;SDS011;9275;48.690;9.686;2024-03-08T05:12:53;2.87;;;1.50;;
18298;SDS011;9275;48.690;9.686;2024-03-08T05:17:58;5.47;;;1.80;;
18298;SDS011;9275;48.690;9.686;2024-03-08T05:23:03;3.97;;;1.50;;
18298;SDS011;9275;48.690;9.686;2024-03-08T05:28:09;3.30;;;1.80;;
18298;SDS011;9275;48.690;9.686;2024-03-08T05:33:13;4.47;;;1.30;;
18298;SDS011;9275;48.690;9.686;2024-03-08T05:38:18;3.77;;;1.70;;
18298;SDS011;9275;48.690;9.686;2024-03-08T05:43:25;4.60;;;1.77;;
18298;SDS011;9275;48.690;9.686;2024-03-08T05:48:29;3.43;;;1.20;;
18298;SDS011;9275;48.690;9.686;2024-03-08T05:53:34;5.47;;;1.80;;
18298;SDS011;9275;48.690;9.686;2024-03-08T05:58:40;6.27;;;1.80;;
18298;SDS011;9275;48.690;9.686;2024-03-08T06:03:45;3.77;;;1.50;;
18298;SDS011;9275;48.690;9.686;2024-03-08T06:08:51;3.27;;;1.40;;
18298;SDS011;9275;48.690;9.686;2024-03-08T06:14:00;3.00;;;1.50;;
18298;SDS011;9275;48.690;9.686;2024-03-08T06:19:04;5.27;;;1.30;;
18298;SDS011;9275;48.690;9.686;2024-03-08T06:24:09;3.63;;;1.53;;
18298;SDS011;9275;48.690;9.686;2024-03-08T06:29:15;3.37;;;1.40;;
18298;SDS011;9275;48.690;9.686;2024-03-08T06:34:19;3.43;;;1.40;;
18298;SDS011;9275;48.690;9.686;2024-03-08T06:39:24;3.70;;;1.40;;
18298;SDS011;9275;48.690;9.686;2024-03-08T06:44:29;2.50;;;1.50;;
18298;SDS011;9275;48.690;9.686;2024-03-08T06:49:35;4.00;;;1.77;;
18298;SDS011;9275;48.690;9.686;2024-03-08T06:54:39;3.77;;;1.60;;
18298;SDS011;9275;48.690;9.686;2024-03-08T06:59:45;3.13;;;1.40;;
18298;SDS011;9275;48.690;9.686;2024-03-08T07:04:50;3.87;;;1.50;;
18298;SDS011;9275;48.690;9.686;2024-03-08T07:09:55;3.90;;;1.60;;
18298;SDS011;9275;48.690;9.686;2024-03-08T07:15:01;5.33;;;1.60;;
18298;SDS011;9275;48.690;9.686;2024-03-08T07:20:06;3.33;;;1.40;;
18298;SDS011;9275;48.690;9.686;2024-03-08T07:25:16;5.40;;;1.53;;
18298;SDS011;9275;48.690;9.686;2024-03-08T07:30:26;3.67;;;1.60;;
18298;SDS011;9275;48.690;9.686;2024-03-08T07:35:48;4.47;;;1.50;;
18298;SDS011;9275;48.690;9.686;2024-03-08T07:40:53;2.97;;;1.50;;
18298;SDS011;9275;48.690;9.686;2024-03-08T07:46:00;4.27;;;1.60;;
18298;SDS011;9275;48.690;9.686;2024-03-08T07:51:05;3.57;;;1.60;;
18298;SDS011;9275;48.690;9.686;2024-03-08T07:56:12;3.70;;;1.60;;
18298;SDS011;9275;48.690;9.686;2024-03-08T08:01:20;5.30;;;1.67;;
18298;SDS011;9275;48.690;9.686;2024-03-08T08:06:25;4.30;;;1.70;;
18298;SDS011;9275;48.690;9.686;2024-03-08T08:11:29;4.77;;;1.50;;
18298;SDS011;9275;48.690;9.686;2024-03-08T08:16:36;3.40;;;1.40;;
18298;SDS011;9275;48.690;9.686;2024-03-08T08:21:43;4.17;;;1.30;;
18298;SDS011;9275;48.690;9.686;2024-03-08T08:26:48;5.67;;;1.33;;
18298;SDS011;9275;48.690;9.686;2024-03-08T08:31:54;3.70;;;1.47;;
18298;SDS011;9275;48.690;9.686;2024-03-08T08:37:04;3.37;;;1.40;;
18298;SDS011;9275;48.690;9.686;2024-03-08T08:42:09;2.47;;;1.20;;
18298;SDS011;9275;48.690;9.686;2024-03-08T08:47:15;4.50;;;1.30;;
18298;SDS011;9275;48.690;9.686;2024-03-08T08:52:21;3.93;;;1.70;;
18298;SDS011;9275;48.690;9.686;2024-03-08T08:57:25;2.63;;;1.47;;
18298;SDS011;9275;48.690;9.686;2024-03-08T09:02:32;2.00;;;1.13;;
18298;SDS011;9275;48.690;9.686;2024-03-08T09:07:37;2.27;;;1.30;;
18298;SDS011;9275;48.690;9.686;2024-03-08T09:12:41;3.17;;;1.20;;
18298;SDS011;9275;48.690;9.686;2024-03-08T09:17:48;3.57;;;1.20;;
18298;SDS011;9275;48.690;9.686;2024-03-08T09:22:53;3.17;;;1.43;;
18298;SDS011;9275;48.690;9.686;2024-03-08T09:27:58;1.40;;;0.90;;
18298;SDS011;9275;48.690;9.686;2024-03-08T09:33:04;1.83;;;1.20;;
18298;SDS011;9275;48.690;9.686;2024-03-08T09:38:09;4.60;;;1.10;;
18298;SDS011;9275;48.690;9.686;2024-03-08T09:43:15;2.50;;;1.37;;
18298;SDS011;9275;48.690;9.686;2024-03-08T09:48:24;3.73;;;1.43;;
18298;SDS011;9275;48.690;9.686;2024-03-08T09:53:31;1.97;;;1.17;;
18298;SDS011;9275;48.690;9.686;2024-03-08T09:58:36;2.80;;;1.10;;
18298;SDS011;9275;48.690;9.686;2024-03-08T10:03:58;1.70;;;1.17;;
18298;SDS011;9275;48.690;9.686;2024-03-08T10:09:02;2.73;;;1.10;;
18298;SDS011;9275;48.690;9.686;2024-03-08T10:14:08;1.93;;;1.00;;
18298;SDS011;9275;48.690;9.686;2024-03-08T10:19:14;2.80;;;0.93;;
18298;SDS011;9275;48.690;9.686;2024-03-08T10:24:19;2.07;;;1.20;;
18298;SDS011;9275;48.690;9.686;2024-03-08T10:29:23;2.23;;;1.00;;
18298;SDS011;9275;48.690;9.686;2024-03-08T10:34:29;3.13;;;1.10;;
18298;SDS011;9275;48.690;9.686;2024-03-08T10:39:34;3.70;;;1.00;;
18298;SDS011;9275;48.690;9.686;2024-03-08T10:44:41;1.33;;;0.80;;
18298;SDS011;9275;48.690;9.686;2024-03-08T10:50:10;1.87;;;0.90;;
18298;SDS011;9275;48.690;9.686;2024-03-08T10:55:23;2.43;;;0.90;;
18298;SDS011;9275;48.690;9.686;2024-03-08T11:00:31;1.67;;;1.10;;
18298;SDS011;9275;48.690;9.686;2024-03-08T11:05:38;3.00;;;0.93;;
18298;SDS011;9275;48.690;9.686;2024-03-08T11:10:48;2.87;;;1.20;;
18298;SDS011;9275;48.690;9.686;2024-03-08T11:15:55;2.00;;;1.00;;
18298;SDS011;9275;48.690;9.686;2024-03-08T11:21:03;2.00;;;1.10;;
18298;SDS011;9275;48.690;9.686;2024-03-08T11:26:17;2.30;;;1.20;;
18298;SDS011;9275;48.690;9.686;2024-03-08T11:31:24;2.57;;;1.17;;
18298;SDS011;9275;48.690;9.686;2024-03-08T11:36:32;2.03;;;1.17;;
18298;SDS011;9275;48.690;9.686;2024-03-08T11:41:39;3.50;;;1.10;;
18298;SDS011;9275;48.690;9.686;2024-03-08T11:46:44;2.47;;;1.03;;
18298;SDS011;9275;48.690;9.686;2024-03-08T11:51:52;2.07;;;0.90;;
18298;SDS011;9275;48.690;9.686;2024-03-08T11:56:58;3.83;;;1.23;;
18298;SDS011;9275;48.690;9.686;2024-03-08T12:02:03;2.17;;;1.00;;
18298;SDS011;9275;48.690;9.686;2024-03-08T12:07:11;1.43;;;0.80;;
18298;SDS011;9275;48.690;9.686;2024-03-08T12:12:16;3.77;;;1.17;;
18298;SDS011;9275;48.690;9.686;2024-03-08T12:17:20;2.70;;;1.10;;
18298;SDS011;9275;48.690;9.686;2024-03-08T12:22:30;2.47;;;1.07;;
18298;SDS011;9275;48.690;9.686;2024-03-08T12:27:34;2.43;;;1.00;;
18298;SDS011;9275;48.690;9.686;2024-03-08T12:32:46;1.73;;;1.20;;
18298;SDS011;9275;48.690;9.686;2024-03-08T12:37:54;2.67;;;1.10;;
18298;SDS011;9275;48.690;9.686;2024-03-08T12:42:59;1.53;;;0.90;;
18298;SDS011;9275;48.690;9.686;2024-03-08T12:48:11;1.40;;;1.00;;
18298;SDS011;9275;48.690;9.686;2024-03-08T12:53:19;2.20;;;0.90;;
18298;SDS011;9275;48.690;9.686;2024-03-08T12:58:25;2.87;;;1.10;;
18298;SDS011;9275;48.690;9.686;2024-03-08T13:03:30;2.00;;;1.20;;
18298;SDS011;9275;48.690;9.686;2024-03-08T13:08:37;1.83;;;1.20;;
18298;SDS011;9275;48.690;9.686;2024-03-08T13:13:41;2.03;;;1.10;;
18298;SDS011;9275;48.690;9.686;2024-03-08T13:18:46;1.53;;;1.00;;
18298;SDS011;9275;48.690;9.686;2024-03-08T13:23:57;3.00;;;1.03;;
18298;SDS011;9275;48.690;9.686;2024-03-08T13:29:04;2.03;;;0.90;;
18298;SDS011;9275;48.690;9.686;2024-03-08T13:34:09;1.80;;;1.00;;
18298;SDS011;9275;48.690;9.686;2024-03-08T13:39:15;2.40;;;1.00;;
18298;SDS011;9275;48.690;9.686;2024-03-08T13:44:23;2.67;;;1.23;;
18298;SDS011;9275;48.690;9.686;2024-03-08T13:49:28;1.40;;;0.93;;
18298;SDS011;9275;48.690;9.686;2024-03-08T13:54:34;1.90;;;1.00;;
18298;SDS011;9275;48.690;9.686;2024-03-08T13:59:38;1.23;;;0.90;;
18298;SDS011;9275;48.690;9.686;2024-03-08T14:04:43;2.37;;;1.00;;
18298;SDS011;9275;48.690;9.686;2024-03-08T14:09:50;4.27;;;1.00;;
18298;SDS011;9275;48.690;9.686;2024-03-08T14:14:55;2.33;;;1.03;;
18298;SDS011;9275;48.690;9.686;2024-03-08T14:20:02;2.10;;;1.00;;
18298;SDS011;9275;48.690;9.686;2024-03-08T14:25:08;1.73;;;0.93;;
18298;SDS011;9275;48.690;9.686;2024-03-08T14:30:20;1.17;;;0.87;;
18298;SDS011;9275;48.690;9.686;2024-03-08T14:35:37;1.47;;;1.00;;
18298;SDS011;9275;48.690;9.686;2024-03-08T14:40:46;1.77;;;1.00;;
18298;SDS011;9275;48.690;9.686;2024-03-08T14:45:51;1.77;;;0.90;;
18298;SDS011;9275;48.690;9.686;2024-03-08T14:50:56;3.93;;;1.30;;
18298;SDS011;9275;48.690;9.686;2024-03-08T14:56:07;2.30;;;1.00;;
18298;SDS011;9275;48.690;9.686;2024-03-08T15:01:14;4.47;;;1.10;;
18298;SDS011;9275;48.690;9.686;2024-03-08T15:06:19;2.70;;;1.20;;
18298;SDS011;9275;48.690;9.686;2024-03-08T15:11:26;2.70;;;1.20;;
18298;SDS011;9275;48.690;9.686;2024-03-08T15:16:30;2.27;;;1.20;;
18298;SDS011;9275;48.690;9.686;2024-03-08T15:21:35;3.70;;;1.07;;
18298;SDS011;9275;48.690;9.686;2024-03-08T15:26:41;2.63;;;1.17;;
18298;SDS011;9275;48.690;9.686;2024-03-08T15:31:50;3.20;;;1.27;;
18298;SDS011;9275;48.690;9.686;2024-03-08T15:36:56;4.47;;;1.10;;
18298;SDS011;9275;48.690;9.686;2024-03-08T15:42:06;2.27;;;1.00;;
18298;SDS011;9275;48.690;9.686;2024-03-08T15:47:10;1.63;;;0.80;;
18298;SDS011;9275;48.690;9.686;2024-03-08T15:52:15;1.37;;;1.00;;
18298;SDS011;9275;48.690;9.686;2024-03-08T15:57:21;2.33;;;1.20;;
18298;SDS011;9275;48.690;9.686;2024-03-08T16:02:26;1.80;;;1.07;;
18298;SDS011;9275;48.690;9.686;2024-03-08T16:07:33;2.33;;;0.90;;
18298;SDS011;9275;48.690;9.686;2024-03-08T16:12:39;2.47;;;1.07;;
18298;SDS011;9275;48.690;9.686;2024-03-08T16:17:43;3.37;;;1.00;;
18298;SDS011;9275;48.690;9.686;2024-03-08T16:22:48;1.87;;;1.30;;
18298;SDS011;9275;48.690;9.686;2024-03-08T16:27:56;1.47;;;0.87;;
18298;SDS011;9275;48.690;9.686;2024-03-08T16:33:00;2.73;;;1.10;;
18298;SDS011;9275;48.690;9.686;2024-03-08T16:38:08;2.13;;;1.10;;
18298;SDS011;9275;48.690;9.686;2024-03-08T16:43:16;4.57;;;1.27;;
18298;SDS011;9275;48.690;9.686;2024-03-08T16:48:27;2.57;;;1.07;;
18298;SDS011;9275;48.690;9.686;2024-03-08T16:53:32;2.80;;;1.10;;
18298;SDS011;9275;48.690;9.686;2024-03-08T16:58:38;5.17;;;1.47;;
18298;SDS011;9275;48.690;9.686;2024-03-08T17:03:44;2.93;;;0.83;;
18298;SDS011;9275;48.690;9.686;2024-03-08T17:09:02;4.37;;;1.37;;
18298;SDS011;9275;48.690;9.686;2024-03-08T17:14:15;2.83;;;0.80;;
18298;SDS011;9275;48.690;9.686;2024-03-08T17:19:22;7.10;;;1.10;;
18298;SDS011;9275;48.690;9.686;2024-03-08T17:24:28;3.03;;;1.17;;
18298;SDS011;9275;48.690;9.686;2024-03-08T17:29:38;2.50;;;1.33;;
18298;SDS011;9275;48.690;9.686;2024-03-08T17:34:43;2.27;;;1.30;;
18298;SDS011;9275;48.690;9.686;2024-03-08T17:39:49;8.43;;;1.60;;
18298;SDS011;9275;48.690;9.686;2024-03-08T17:44:58;1.63;;;1.00;;
18298;SDS011;9275;48.690;9.686;2024-03-08T17:50:03;2.43;;;1.20;;
18298;SDS011;9275;48.690;9.686;2024-03-08T17:55:13;3.13;;;1.20;;
18298;SDS011;9275;48.690;9.686;2024-03-08T18:00:20;2.30;;;1.30;;
18298;SDS011;9275;48.690;9.686;2024-03-08T18:05:28;2.03;;;1.40;;
18298;SDS011;9275;48.690;9.686;2024-03-08T18:10:35;1.33;;;1.20;;
18298;SDS011;9275;48.690;9.686;2024-03-08T18:15:41;2.60;;;1.20;;
18298;SDS011;9275;48.690;9.686;2024-03-08T18:20:49;2.37;;;1.20;;
18298;SDS011;9275;48.690;9.686;2024-03-08T18:25:54;3.57;;;1.70;;
18298;SDS011;9275;48.690;9.686;2024-03-08T18:31:00;2.60;;;1.10;;
18298;SDS011;9275;48.690;9.686;2024-03-08T18:36:05;2.77;;;1.20;;
18298;SDS011;9275;48.690;9.686;2024-03-08T18:41:10;3.47;;;1.17;;
18298;SDS011;9275;48.690;9.686;2024-03-08T18:46:16;3.90;;;1.23;;
18298;SDS011;9275;48.690;9.686;2024-03-08T18:51:21;3.33;;;1.20;;
18298;SDS011;9275;48.690;9.686;2024-03-08T18:56:25;3.83;;;1.60;;
18298;SDS011;9275;48.690;9.686;2024-03-08T19:01:33;3.13;;;1.27;;
18298;SDS011;9275;48.690;9.686;2024-03-08T19:06:39;2.70;;;1.60;;
18298;SDS011;9275;48.690;9.686;2024-03-08T19:11:43;4.03;;;1.30;;
18298;SDS011;9275;48.690;9.686;2024-03-08T19:16:49;2.40;;;1.30;;
18298;SDS011;9275;48.690;9.686;2024-03-08T19:21:55;3.43;;;1.40;;
18298;SDS011;9275;48.690;9.686;2024-03-08T19:27:00;2.30;;;1.33;;
18298;SDS011;9275;48.690;9.686;2024-03-08T19:32:07;5.33;;;1.40;;
18298;SDS011;9275;48.690;9.686;2024-03-08T19:37:13;2.67;;;1.47;;
18298;SDS011;9275;48.690;9.686;2024-03-08T19:42:17;2.83;;;1.20;;
18298;SDS011;9275;48.690;9.686;2024-03-08T19:47:26;3.60;;;1.37;;
18298;SDS011;9275;48.690;9.686;2024-03-08T19:52:31;3.90;;;1.53;;
18298;SDS011;9275;48.690;9.686;2024-03-08T19:57:39;2.13;;;1.30;;
18298;SDS011;9275;48.690;9.686;2024-03-08T20:02:46;3.23;;;1.50;;
18298;SDS011;9275;48.690;9.686;2024-03-08T20:07:52;2.73;;;1.60;;
18298;SDS011;9275;48.690;9.686;2024-03-08T20:12:57;3.83;;;1.73;;
18298;SDS011;9275;48.690;9.686;2024-03-08T20:18:03;3.10;;;1.40;;
18298;SDS011;9275;48.690;9.686;2024-03-08T20:23:11;3.87;;;1.50;;
18298;SDS011;9275;48.690;9.686;2024-03-08T20:28:15;2.77;;;1.40;;
18298;SDS011;9275;48.690;9.686;2024-03-08T20:33:23;2.47;;;1.50;;
18298;SDS011;9275;48.690;9.686;2024-03-08T20:38:28;2.50;;;1.43;;
18298;SDS011;9275;48.690;9.686;2024-03-08T20:43:34;2.87;;;1.40;;
18298;SDS011;9275;48.690;9.686;2024-03-08T20:48:40;4.00;;;1.60;;
18298;SDS011;9275;48.690;9.686;2024-03-08T20:53:48;4.27;;;1.53;;
18298;SDS011;9275;48.690;9.686;2024-03-08T20:58:52;3.17;;;1.50;;
18298;SDS011;9275;48.690;9.686;2024-03-08T21:03:58;3.73;;;1.53;;
18298;SDS011;9275;48.690;9.686;2024-03-08T21:09:03;2.87;;;1.30;;
18298;SDS011;9275;48.690;9.686;2024-03-08T21:14:13;3.27;;;1.50;;
18298;SDS011;9275;48.690;9.686;2024-03-08T21:19:20;2.90;;;1.60;;
18298;SDS011;9275;48.690;9.686;2024-03-08T21:24:24;7.13;;;1.57;;
18298;SDS011;9275;48.690;9.686;2024-03-08T21:29:29;3.13;;;1.60;;
18298;SDS011;9275;48.690;9.686;2024-03-08T21:34:40;4.97;;;1.53;;
18298;SDS011;9275;48.690;9.686;2024-03-08T21:39:45;3.30;;;1.60;;
18298;SDS011;9275;48.690;9.686;2024-03-08T21:44:49;4.23;;;1.60;;
18298;SDS011;9275;48.690;9.686;2024-03-08T21:49:57;3.80;;;1.40;;
18298;SDS011;9275;48.690;9.686;2024-03-08T21:55:01;3.43;;;1.50;;
18298;SDS011;9275;48.690;9.686;2024-03-08T22:00:06;3.80;;;1.80;;
18298;SDS011;9275;48.690;9.686;2024-03-08T22:05:16;4.63;;;1.43;;
18298;SDS011;9275;48.690;9.686;2024-03-08T22:10:22;4.03;;;1.47;;
18298;SDS011;9275;48.690;9.686;2024-03-08T22:15:29;3.27;;;1.40;;
18298;SDS011;9275;48.690;9.686;2024-03-08T22:20:35;3.87;;;1.27;;
18298;SDS011;9275;48.690;9.686;2024-03-08T22:25:39;2.67;;;1.50;;
18298;SDS011;9275;48.690;9.686;2024-03-08T22:30:44;3.27;;;1.43;;
18298;SDS011;9275;48.690;9.686;2024-03-08T22:35:50;3.30;;;1.40;;
18298;SDS011;9275;48.690;9.686;2024-03-08T22:40:56;2.77;;;1.53;;
18298;SDS011;9275;48.690;9.686;2024-03-08T22:46:00;3.37;;;1.40;;
18298;SDS011;9275;48.690;9.686;2024-03-08T22:51:08;2.57;;;1.50;;
18298;SDS011;9275;48.690;9.686;2024-03-08T22:56:14;6.50;;;1.57;;
18298;SDS011;9275;48.690;9.686;2024-03-08T23:01:18;4.20;;;1.33;;
18298;SDS011;9275;48.690;9.686;2024-03-08T23:06:26;3.47;;;1.67;;
18298;SDS011;9275;48.690;9.686;2024-03-08T23:11:31;3.47;;;1.50;;
18298;SDS011;9275;48.690;9.686;2024-03-08T23:16:36;4.40;;;1.30;;
18298;SDS011;9275;48.690;9.686;2024-03-08T23:21:43;3.53;;;1.50;;
18298;SDS011;9275;48.690;9.686;2024-03-08T23:26:47;2.97;;;1.43;;
18298;SDS011;9275;48.690;9.686;2024-03-08T23:31:52;3.33;;;1.60;;
18298;SDS011;9275;48.690;9.686;2024-03-08T23:36:58;3.07;;;1.43;;
18298;SDS011;9275;48.690;9.686;2024-03-08T23:42:03;2.20;;;1.27;;
18298;SDS011;9275;48.690;9.686;2024-03-08T23:47:08;3.37;;;1.60;;
18298;SDS011;9275;48.690;9.686;2024-03-08T23:52:16;2.87;;;1.47;;
18298;SDS011;9275;48.690;9.686;2024-03-08T23:57:20;4.27;;;1.60;;
